Flight Number: EUR2033 Duration: 0:45
Departure: Munich Int'l (EDDM) at 06:45 Distance: 192 Nm
Arrival: Vienna Schwechat (LOWW) at 07:30 Equipment: B737

Weather Information
Munchen, Germany (EDDM) 48-21N 011-47E Nov 19, 2018 - 04:50 PM EST / 2018.11.19 2150 UTC
Wind: from the E (080 degrees) at 13 MPH (11 KT):0
Visibility: greater than 7 mile(s):0
Sky conditions: overcast Temperature: 32 F (0 C)
Windchill: 23 F (-5 C):1 Dew Point: 26 F (-3 C) Relative Humidity: 80% Pressure (altimeter): 29.77 in. Hg (1008 hPa)
ob: EDDM 192150Z 08011KT 9999 OVC013 M00/M03 Q1008 NOSIG cycle: 22
Sunrise: 06:30 Sunset: 15:25 (UTC)

Wien / Schwechat-Flughafen, Austria (LOWW) 48-07N 016-34E 190M Nov 19, 2018 - 04:50 PM EST / 2018.11.19 2150 UTC
Wind: from the E (090 degrees) at 6 MPH (5 KT):0
Visibility: 4 mile(s):0
Sky conditions: mostly cloudy Temperature: 35 F (2 C)
Windchill: 30 F (-1 C):1 Dew Point: 33 F (1 C) Relative Humidity: 93% Pressure (altimeter): 30.06 in. Hg (1018 hPa)
ob: LOWW 192150Z 09005KT 8000 FEW006 SCT007 BKN010 02/01 Q1018 TEMPO BKN015 cycle: 22
Sunrise: 06:11 Sunset: 15:07 (UTC)

TAF:2018/11/19 21:21 TAF LOWW 192015Z 1921/2103 08005KT 5000 BR FEW006 BKN015 TX04/2103Z TN01/2004Z TEMPO 1921/2003 12006KT 2000 -RASN OVC004 BECMG 2003/2005 10008KT -SNRA BR PROB40 TEMPO 2005/2014 1400 SN BR FEW003 BKN004 TEMPO 2014/2021 2000 -RASN OVC005

Previous Pireps for this route
Date Aircraft Flight time Fuel used Landing rate On time
2012-09-27B7370.595900-312No
2012-10-23B73701.1010845-584No
2012-12-29B737.4343000No
2013-03-26B7371.1100000No
2013-04-23B7372120000No
2013-05-28B7370.5350000No
2013-07-07B73701.128013-665No
2013-07-09B73700.545867-668No
2013-07-11B73700.465508-398No
2013-07-23B73700.505000-350No
2013-10-26B73701.178464-134No
2014-03-23B73701.098745-348Yes
2014-06-25B7371.2032540No
2014-08-23B73701.056921-175Yes
2014-12-08B73701.0052030Charter
2015-01-12B73701.155483-96Yes
2015-01-13B73701.175392-243Yes
2015-01-27B73701.146651-138Yes
2015-03-12B73700.524863-168Yes
2015-03-28B73700.413913-98Yes
2015-04-06B73700.442904-152Yes
2015-07-12B7370.4651380Yes
2015-07-15B7370.5053240Yes
2015-08-17B77701.4917819-556Charter
2015-12-18B73701.045799-361Charter
2016-07-23B7371.0410312-184Yes
2018-05-22B7371.00-28140Yes
2018-09-04B73701.1339284-255Charter
(pireps marked green are flown by you)

Route map